createdAt,value
2022-10-24T00:00:48.006Z,5.60
2022-10-24T00:03:15.683Z,5.82
2022-10-24T00:05:43.959Z,6.30
2022-10-24T00:08:11.623Z,6.05
2022-10-24T00:10:42.391Z,5.70
2022-10-24T00:13:09.659Z,6.07
2022-10-24T00:15:36.984Z,6.43
2022-10-24T00:18:04.558Z,6.32
2022-10-24T00:20:31.982Z,6.22
2022-10-24T00:22:59.215Z,5.78
2022-10-24T00:25:26.509Z,6.10
2022-10-24T00:27:53.796Z,5.90
2022-10-24T00:30:21.091Z,6.05
2022-10-24T00:32:48.420Z,6.13
2022-10-24T00:35:15.705Z,6.07
2022-10-24T00:37:43.232Z,5.75
2022-10-24T00:40:11.178Z,6.13
2022-10-24T00:42:38.398Z,5.90
2022-10-24T00:45:25.633Z,6.45
2022-10-24T00:47:52.891Z,6.45
2022-10-24T00:50:20.204Z,6.72
2022-10-24T00:52:47.901Z,6.38
2022-10-24T00:55:15.602Z,7.00
2022-10-24T00:57:48.878Z,6.60
2022-10-24T01:00:17.970Z,6.82
2022-10-24T01:02:46.093Z,6.63
2022-10-24T01:05:13.930Z,6.45
2022-10-24T01:07:44.030Z,6.35
2022-10-24T01:10:22.847Z,7.18
2022-10-24T01:12:59.520Z,7.15
2022-10-24T01:15:26.763Z,7.32
2022-10-24T01:18:07.764Z,7.68
2022-10-24T01:20:53.835Z,8.90
2022-10-24T01:23:21.201Z,8.32
2022-10-24T01:26:00.521Z,8.05
2022-10-24T01:28:41.185Z,7.30
2022-10-24T01:31:11.005Z,7.97
2022-10-24T01:33:41.144Z,8.45
2022-10-24T01:36:13.618Z,9.05
2022-10-24T01:38:58.259Z,8.32
2022-10-24T01:41:27.760Z,8.73
2022-10-24T01:43:57.897Z,7.93
2022-10-24T01:46:29.945Z,8.40
2022-10-24T01:49:14.474Z,7.78
2022-10-24T01:51:42.462Z,8.07
2022-10-24T01:54:10.423Z,8.70
2022-10-24T01:56:37.801Z,8.63
2022-10-24T01:59:08.984Z,9.43
2022-10-24T02:04:06.043Z,10.20
2022-10-24T02:06:35.745Z,9.65
2022-10-24T02:09:06.569Z,9.35
2022-10-24T02:11:34.874Z,9.32
2022-10-24T02:14:14.910Z,9.65
2022-10-24T02:16:42.598Z,10.10
2022-10-24T02:19:10.154Z,11.38
2022-10-24T02:21:55.762Z,12.35
2022-10-24T02:24:25.482Z,11.35
2022-10-24T02:26:52.693Z,10.13
2022-10-24T02:29:21.934Z,9.18
2022-10-24T02:31:54.935Z,8.52
2022-10-24T02:34:23.371Z,8.15
2022-10-24T02:36:52.763Z,7.80
2022-10-24T02:39:20.458Z,7.05
2022-10-24T02:41:48.167Z,6.55
2022-10-24T02:44:17.124Z,7.22
2022-10-24T02:46:45.410Z,6.95
2022-10-24T02:49:12.757Z,7.20
2022-10-24T02:51:41.936Z,7.18
2022-10-24T02:54:10.502Z,6.45
2022-10-24T02:56:40.429Z,7.13
2022-10-24T03:01:39.929Z,7.57
2022-10-24T03:04:07.283Z,8.55
2022-10-24T03:06:34.512Z,7.35
2022-10-24T03:09:01.834Z,7.22
2022-10-24T03:11:29.108Z,7.80
2022-10-24T03:13:56.392Z,6.82
2022-10-24T03:16:23.698Z,7.18
2022-10-24T03:18:50.932Z,6.88
2022-10-24T03:21:18.189Z,7.50
2022-10-24T03:23:45.447Z,7.00
2022-10-24T03:26:12.705Z,7.50
2022-10-24T03:28:39.945Z,7.72
2022-10-24T03:31:07.247Z,7.13
2022-10-24T03:33:34.525Z,7.75
2022-10-24T03:36:01.919Z,7.57
2022-10-24T03:38:29.188Z,8.27
2022-10-24T03:40:56.517Z,8.32
2022-10-24T03:43:23.766Z,8.55
2022-10-24T03:45:51.199Z,8.13
2022-10-24T03:48:18.532Z,8.52
2022-10-24T03:50:45.784Z,8.77
2022-10-24T03:53:13.048Z,8.98
2022-10-24T03:55:40.403Z,10.05
2022-10-24T03:58:07.683Z,9.30
2022-10-24T04:00:39.580Z,8.95
2022-10-24T04:03:07.793Z,10.60
2022-10-24T04:05:35.445Z,9.27
2022-10-24T04:08:03.290Z,9.45
2022-10-24T04:10:30.587Z,9.38
2022-10-24T04:12:57.830Z,9.63
2022-10-24T04:15:25.134Z,9.88
2022-10-24T04:17:52.488Z,9.77
2022-10-24T04:20:20.815Z,9.73
2022-10-24T04:22:48.316Z,10.13
2022-10-24T04:25:16.114Z,9.90
2022-10-24T04:27:44.027Z,10.02
2022-10-24T04:30:16.527Z,10.20
2022-10-24T04:32:44.675Z,10.63
2022-10-24T04:35:12.185Z,20.58
2022-10-24T04:37:39.510Z,10.05
2022-10-24T04:40:07.127Z,10.35
2022-10-24T04:42:34.627Z,11.02
2022-10-24T04:45:01.871Z,10.60
2022-10-24T04:47:29.295Z,10.88
2022-10-24T04:49:56.533Z,11.10
2022-10-24T04:52:23.828Z,10.20
2022-10-24T04:54:51.079Z,10.73
2022-10-24T04:57:18.399Z,10.27
2022-10-24T04:59:46.719Z,10.75
2022-10-24T05:02:14.037Z,10.95
2022-10-24T05:04:41.463Z,10.80
2022-10-24T05:07:08.786Z,10.68
2022-10-24T05:09:36.050Z,12.27
2022-10-24T05:12:03.436Z,10.75
2022-10-24T05:14:30.700Z,11.07
2022-10-24T05:16:57.963Z,10.73
2022-10-24T05:19:25.210Z,11.38
2022-10-24T05:21:52.450Z,12.40
2022-10-24T05:24:19.694Z,12.75
2022-10-24T05:26:46.925Z,11.70
2022-10-24T05:29:14.215Z,11.15
2022-10-24T05:31:41.525Z,11.68
2022-10-24T05:34:08.762Z,12.43
2022-10-24T05:36:35.986Z,13.00
2022-10-24T05:39:03.296Z,11.80
2022-10-24T05:41:30.651Z,13.23
2022-10-24T05:43:57.881Z,13.95
2022-10-24T05:46:25.131Z,15.40
2022-10-24T05:48:52.357Z,15.52
2022-10-24T05:51:19.588Z,15.52
2022-10-24T05:53:46.882Z,15.23
2022-10-24T05:56:14.163Z,14.35
2022-10-24T05:58:41.444Z,14.90
2022-10-24T06:01:08.770Z,15.95
2022-10-24T06:03:36.184Z,15.70
2022-10-24T06:06:07.392Z,16.70
2022-10-24T06:11:01.978Z,16.60
2022-10-24T06:13:33.719Z,15.88
2022-10-24T06:16:03.512Z,17.35
2022-10-24T06:18:30.773Z,15.48
2022-10-24T06:21:00.406Z,15.77
2022-10-24T06:23:28.003Z,15.05
2022-10-24T06:25:55.275Z,13.70
2022-10-24T06:28:22.957Z,12.77
2022-10-24T06:30:50.819Z,12.40
2022-10-24T06:33:18.071Z,12.77
2022-10-24T06:35:45.293Z,12.90
2022-10-24T06:38:12.561Z,12.63
2022-10-24T06:40:41.914Z,13.15
2022-10-24T06:43:09.648Z,12.60
2022-10-24T06:45:38.650Z,13.25
2022-10-24T06:48:06.021Z,13.68
2022-10-24T06:50:33.289Z,12.32
2022-10-24T06:53:00.656Z,12.20
2022-10-24T06:55:27.878Z,12.18
2022-10-24T06:57:55.200Z,12.20
2022-10-24T07:00:22.641Z,13.40
2022-10-24T07:02:50.912Z,13.68
2022-10-24T07:05:18.192Z,15.77
2022-10-24T07:07:46.062Z,14.93
2022-10-24T07:10:14.677Z,16.55
2022-10-24T07:12:43.507Z,12.57
2022-10-24T07:15:11.655Z,12.98
2022-10-24T07:17:40.070Z,12.85
2022-10-24T07:20:07.838Z,12.77
2022-10-24T07:22:35.309Z,11.57
2022-10-24T07:25:02.599Z,10.98
2022-10-24T07:27:29.846Z,12.93
2022-10-24T07:29:59.345Z,11.48
2022-10-24T07:32:27.878Z,10.45
2022-10-24T07:34:55.140Z,10.40
2022-10-24T07:37:22.523Z,8.85
2022-10-24T07:39:49.937Z,9.05
2022-10-24T07:42:18.904Z,7.95
2022-10-24T07:44:46.454Z,7.60
2022-10-24T07:47:13.760Z,6.60
2022-10-24T07:49:41.049Z,6.97
2022-10-24T07:52:08.334Z,7.43
2022-10-24T07:54:37.274Z,7.07
2022-10-24T07:57:04.942Z,6.55
2022-10-24T07:59:41.854Z,7.07
2022-10-24T08:02:11.793Z,6.50
2022-10-24T08:04:39.455Z,6.97
2022-10-24T08:07:13.286Z,6.90
2022-10-24T08:09:42.196Z,7.57
2022-10-24T08:12:09.468Z,8.27
2022-10-24T08:14:40.404Z,8.80
2022-10-24T08:17:07.746Z,8.35
2022-10-24T08:19:35.318Z,8.50
2022-10-24T08:22:02.953Z,8.32
2022-10-24T08:24:30.271Z,8.57
2022-10-24T08:26:57.512Z,8.82
2022-10-24T08:29:25.549Z,9.38
2022-10-24T08:31:53.879Z,7.88
2022-10-24T08:34:21.272Z,7.45
2022-10-24T08:36:49.202Z,7.88
2022-10-24T08:39:16.734Z,8.63
2022-10-24T08:41:46.899Z,8.13
2022-10-24T08:44:16.965Z,7.57
2022-10-24T08:46:45.437Z,8.48
2022-10-24T08:49:12.674Z,7.75
2022-10-24T08:51:43.609Z,8.40
2022-10-24T08:54:16.409Z,7.75
2022-10-24T08:56:43.634Z,8.38
2022-10-24T08:59:13.176Z,8.25
2022-10-24T09:01:40.534Z,9.10
2022-10-24T09:04:10.139Z,8.50
2022-10-24T09:06:37.648Z,8.50
2022-10-24T09:09:04.909Z,8.18
2022-10-24T09:11:50.698Z,7.63
2022-10-24T09:14:19.116Z,6.97
2022-10-24T09:16:49.078Z,6.72
2022-10-24T09:19:21.628Z,6.38
2022-10-24T09:21:49.428Z,5.88
2022-10-24T09:24:53.063Z,6.35
2022-10-24T09:27:24.908Z,5.82
2022-10-24T09:29:52.849Z,5.75
2022-10-24T09:32:22.242Z,6.07
2022-10-24T09:34:50.364Z,5.70
2022-10-24T09:37:41.358Z,4.75
2022-10-24T09:40:17.873Z,4.82
2022-10-24T09:42:49.896Z,4.88
2022-10-24T09:45:20.620Z,4.82
2022-10-24T09:47:55.621Z,4.82
2022-10-24T09:50:23.871Z,4.97
2022-10-24T09:52:52.111Z,4.10
2022-10-24T09:55:24.389Z,5.63
2022-10-24T09:58:00.316Z,4.88
2022-10-24T10:00:29.241Z,4.95
2022-10-24T10:03:02.038Z,5.03
2022-10-24T10:05:44.726Z,4.85
2022-10-24T10:08:32.223Z,4.60
2022-10-24T10:11:10.480Z,4.85
2022-10-24T10:13:49.594Z,4.93
2022-10-24T10:16:28.439Z,5.38
2022-10-24T10:19:21.788Z,5.00
2022-10-24T10:21:57.194Z,5.05
2022-10-24T10:24:59.518Z,5.22
2022-10-24T10:27:32.427Z,5.63
2022-10-24T10:30:17.650Z,4.97
2022-10-24T10:33:03.525Z,5.50
2022-10-24T10:35:51.691Z,4.20
2022-10-24T10:38:24.843Z,4.70
2022-10-24T10:40:56.206Z,4.72
2022-10-24T10:43:23.421Z,5.00
2022-10-24T10:46:06.031Z,5.03
2022-10-24T10:48:42.415Z,5.55
2022-10-24T10:51:28.191Z,5.22
2022-10-24T10:54:00.516Z,6.35
2022-10-24T10:56:49.246Z,5.15
2022-10-24T10:59:24.582Z,5.82
2022-10-24T11:02:03.525Z,5.07
2022-10-24T11:04:33.786Z,5.90
2022-10-24T11:07:07.802Z,5.43
2022-10-24T11:09:41.939Z,5.65
2022-10-24T11:12:21.473Z,6.60
2022-10-24T11:14:48.691Z,6.32
2022-10-24T11:17:18.871Z,5.90
2022-10-24T11:20:12.267Z,5.78
2022-10-24T11:22:51.636Z,6.03
2022-10-24T11:25:25.123Z,5.00
2022-10-24T11:28:02.175Z,4.65
2022-10-24T11:30:42.349Z,3.88
2022-10-24T11:33:15.067Z,4.20
2022-10-24T11:35:45.430Z,4.90
2022-10-24T11:38:31.559Z,4.13
2022-10-24T11:41:15.770Z,4.05
2022-10-24T11:43:44.340Z,4.00
2022-10-24T11:46:15.153Z,4.20
2022-10-24T11:48:42.430Z,3.95
2022-10-24T11:51:09.707Z,5.15
2022-10-24T11:53:38.808Z,4.57
2022-10-24T11:56:12.230Z,5.10
2022-10-24T11:58:49.025Z,5.28
2022-10-24T12:01:28.323Z,5.15
2022-10-24T12:04:05.970Z,4.97
2022-10-24T12:06:45.810Z,5.15
2022-10-24T12:09:37.432Z,5.75
2022-10-24T12:12:13.773Z,5.25
2022-10-24T12:14:53.003Z,5.45
2022-10-24T12:17:31.731Z,5.57
2022-10-24T12:20:01.020Z,5.70
2022-10-24T12:22:36.048Z,5.95
2022-10-24T12:25:04.912Z,5.28
2022-10-24T12:27:40.039Z,5.78
2022-10-24T12:30:10.102Z,6.03
2022-10-24T12:32:37.374Z,6.53
2022-10-24T12:35:29.393Z,6.28
2022-10-24T12:37:52.299Z,5.53
2022-10-24T12:40:37.982Z,6.70
2022-10-24T12:43:05.191Z,6.18
2022-10-24T12:45:33.061Z,6.18
2022-10-24T12:48:00.267Z,6.88
2022-10-24T12:50:28.919Z,6.72
2022-10-24T12:53:02.579Z,6.32
2022-10-24T12:55:35.959Z,6.35
2022-10-24T12:58:22.014Z,6.35
2022-10-24T13:00:59.610Z,7.28
2022-10-24T13:03:26.958Z,6.80
2022-10-24T13:06:07.472Z,6.28
2022-10-24T13:08:53.249Z,7.00
2022-10-24T13:11:23.321Z,6.65
2022-10-24T13:14:09.137Z,6.88
2022-10-24T13:16:45.300Z,6.50
2022-10-24T13:19:17.342Z,6.57
2022-10-24T13:21:52.034Z,6.93
2022-10-24T13:24:22.129Z,6.50
2022-10-24T13:26:53.681Z,7.20
2022-10-24T13:29:20.904Z,7.32
2022-10-24T13:31:49.704Z,6.82
2022-10-24T13:34:18.527Z,7.60
2022-10-24T13:36:46.713Z,6.72
2022-10-24T13:39:18.949Z,7.45
2022-10-24T13:41:51.014Z,7.07
2022-10-24T13:44:30.487Z,6.43
2022-10-24T13:46:57.686Z,6.03
2022-10-24T13:49:27.926Z,6.45
2022-10-24T13:51:57.034Z,7.17
2022-10-24T13:54:27.070Z,7.32
2022-10-24T13:56:57.117Z,6.97
2022-10-24T13:59:37.966Z,6.95
2022-10-24T14:02:06.657Z,6.22
2022-10-24T14:04:35.533Z,6.22
2022-10-24T14:07:06.703Z,6.22
2022-10-24T14:12:01.711Z,6.00
2022-10-24T14:14:31.148Z,6.45
2022-10-24T14:17:22.729Z,6.10
2022-10-24T14:20:14.184Z,5.90
2022-10-24T14:22:41.934Z,6.15
2022-10-24T14:25:27.993Z,6.07
2022-10-24T14:27:56.462Z,5.78
2022-10-24T14:30:26.983Z,5.93
2022-10-24T14:33:06.423Z,5.93
2022-10-24T14:35:34.402Z,6.28
2022-10-24T14:38:03.976Z,6.15
2022-10-24T14:40:34.763Z,6.00
2022-10-24T14:43:02.080Z,6.70
2022-10-24T14:45:30.811Z,7.20
2022-10-24T14:48:02.923Z,6.72
2022-10-24T14:50:34.164Z,6.85
2022-10-24T14:53:01.668Z,9.35
2022-10-24T14:55:29.171Z,9.32
2022-10-24T14:57:57.140Z,8.82
2022-10-24T15:00:28.334Z,8.40
2022-10-24T15:05:23.576Z,6.68
2022-10-24T15:08:22.106Z,6.68
2022-10-24T15:10:50.947Z,7.18
2022-10-24T15:13:23.718Z,6.40
2022-10-24T15:16:01.157Z,6.78
2022-10-24T15:18:30.587Z,6.35
2022-10-24T15:21:08.037Z,7.28
2022-10-24T15:23:36.860Z,7.28
2022-10-24T15:26:04.150Z,7.13
2022-10-24T15:28:44.277Z,7.30
2022-10-24T15:31:12.707Z,6.93
2022-10-24T15:36:21.114Z,7.07
2022-10-24T15:38:48.781Z,6.30
2022-10-24T15:41:16.583Z,7.28
2022-10-24T15:43:43.864Z,7.47
2022-10-24T15:46:11.109Z,6.85
2022-10-24T15:48:39.595Z,6.53
2022-10-24T15:51:06.925Z,6.78
2022-10-24T15:53:34.241Z,6.45
2022-10-24T15:56:01.724Z,6.85
2022-10-24T15:58:31.426Z,7.03
2022-10-24T16:00:59.659Z,6.60
2022-10-24T16:03:27.148Z,7.80
2022-10-24T16:05:56.542Z,7.03
2022-10-24T16:08:24.235Z,7.18
2022-10-24T16:10:54.618Z,6.70
2022-10-24T16:13:22.772Z,6.85
2022-10-24T16:15:50.485Z,6.75
2022-10-24T16:18:17.879Z,6.93
2022-10-24T16:20:45.357Z,6.40
2022-10-24T16:23:14.750Z,6.82
2022-10-24T16:25:41.993Z,6.95
2022-10-24T16:28:09.289Z,7.50
2022-10-24T16:30:39.156Z,7.05
2022-10-24T16:33:06.902Z,7.70
2022-10-24T16:35:35.033Z,7.53
2022-10-24T16:38:02.916Z,7.13
2022-10-24T16:40:31.040Z,7.35
2022-10-24T16:42:59.200Z,6.65
2022-10-24T16:45:26.966Z,6.85
2022-10-24T16:47:54.254Z,6.50
2022-10-24T16:50:24.411Z,5.97
2022-10-24T16:52:52.864Z,6.90
2022-10-24T16:55:20.598Z,7.03
2022-10-24T16:57:48.467Z,6.72
2022-10-24T17:00:17.077Z,7.13
2022-10-24T17:02:45.713Z,7.18
2022-10-24T17:05:14.045Z,8.52
2022-10-24T17:07:41.903Z,8.98
2022-10-24T17:10:11.707Z,8.93
2022-10-24T17:12:39.973Z,8.18
2022-10-24T17:15:07.882Z,8.95
2022-10-24T17:17:35.239Z,8.10
2022-10-24T17:20:03.998Z,8.18
2022-10-24T17:24:58.768Z,7.70
2022-10-24T17:27:26.104Z,9.52
2022-10-24T17:29:53.419Z,10.82
2022-10-24T17:32:20.901Z,10.30
2022-10-24T17:34:56.362Z,8.38
2022-10-24T17:37:30.582Z,8.55
2022-10-24T17:40:03.830Z,8.35
2022-10-24T17:42:31.254Z,8.57
2022-10-24T17:44:58.581Z,8.57
2022-10-24T17:47:25.922Z,7.80
2022-10-24T17:49:53.187Z,8.00
2022-10-24T17:52:22.942Z,8.32
2022-10-24T17:54:50.250Z,7.78
2022-10-24T17:57:17.978Z,7.10
2022-10-24T17:59:45.277Z,7.40
2022-10-24T18:02:13.923Z,6.75
2022-10-24T18:04:42.996Z,7.20
2022-10-24T18:07:10.342Z,7.68
2022-10-24T18:09:40.193Z,6.88
2022-10-24T18:12:07.630Z,6.70
2022-10-24T18:14:36.673Z,7.57
2022-10-24T18:17:04.046Z,7.95
2022-10-24T18:19:31.424Z,7.53
2022-10-24T18:21:58.717Z,7.10
2022-10-24T18:24:26.186Z,7.40
2022-10-24T18:26:53.429Z,6.95
2022-10-24T18:29:20.662Z,7.22
2022-10-24T18:31:47.954Z,6.90
2022-10-24T18:34:15.250Z,6.82
2022-10-24T18:36:42.522Z,6.63
2022-10-24T18:39:09.820Z,7.00
2022-10-24T18:41:44.226Z,6.57
2022-10-24T18:44:33.772Z,6.75
2022-10-24T18:47:02.734Z,6.05
2022-10-24T18:49:31.003Z,6.43
2022-10-24T18:52:10.603Z,6.95
2022-10-24T18:54:39.675Z,6.53
2022-10-24T18:57:36.839Z,6.53
2022-10-24T19:00:05.456Z,6.65
2022-10-24T19:02:35.776Z,7.03
2022-10-24T19:05:13.319Z,6.63
2022-10-24T19:07:40.664Z,6.57
2022-10-24T19:10:08.270Z,6.57
2022-10-24T19:12:35.593Z,6.47
2022-10-24T19:15:03.029Z,6.93
2022-10-24T19:17:31.815Z,6.88
2022-10-24T19:19:59.765Z,6.72
2022-10-24T19:22:29.933Z,6.25
2022-10-24T19:24:59.733Z,6.72
2022-10-24T19:27:27.021Z,6.90
2022-10-24T19:29:55.451Z,6.68
2022-10-24T19:32:22.675Z,6.57
2022-10-24T19:34:49.930Z,6.40
2022-10-24T19:37:17.334Z,6.93
2022-10-24T19:39:44.660Z,6.68
2022-10-24T19:42:11.928Z,6.05
2022-10-24T19:44:39.515Z,6.35
2022-10-24T19:47:06.837Z,6.55
2022-10-24T19:49:34.070Z,6.40
2022-10-24T19:52:02.573Z,6.38
2022-10-24T19:54:29.811Z,5.95
2022-10-24T19:56:57.323Z,7.07
2022-10-24T19:59:27.284Z,6.05
2022-10-24T20:01:54.759Z,5.75
2022-10-24T20:04:22.123Z,6.20
2022-10-24T20:06:49.438Z,6.38
2022-10-24T20:09:17.970Z,5.90
2022-10-24T20:11:45.256Z,6.25
2022-10-24T20:14:12.599Z,5.65
2022-10-24T20:16:39.852Z,6.20
2022-10-24T20:19:08.269Z,5.90
2022-10-24T20:21:37.601Z,5.78
2022-10-24T20:24:05.091Z,6.30
2022-10-24T20:26:32.422Z,5.68
2022-10-24T20:28:59.915Z,6.35
2022-10-24T20:31:38.369Z,6.03
2022-10-24T20:34:09.709Z,6.15
2022-10-24T20:36:42.238Z,6.13
2022-10-24T20:39:09.850Z,6.03
2022-10-24T20:41:37.243Z,5.85
2022-10-24T20:44:07.095Z,5.88
2022-10-24T20:46:34.822Z,6.32
2022-10-24T20:49:02.431Z,5.97
2022-10-24T20:51:29.824Z,6.07
2022-10-24T20:53:57.115Z,5.93
2022-10-24T20:56:26.196Z,6.03
2022-10-24T20:58:54.531Z,6.35
2022-10-24T21:01:26.603Z,6.25
2022-10-24T21:03:54.474Z,6.15
2022-10-24T21:06:22.997Z,6.22
2022-10-24T21:08:51.243Z,6.47
2022-10-24T21:11:24.889Z,6.70
2022-10-24T21:14:12.302Z,7.10
2022-10-24T21:16:39.685Z,6.65
2022-10-24T21:19:06.923Z,6.78
2022-10-24T21:21:34.189Z,6.47
2022-10-24T21:24:06.517Z,6.55
2022-10-24T21:26:40.418Z,5.88
2022-10-24T21:29:09.260Z,6.38
2022-10-24T21:31:42.178Z,5.90
2022-10-24T21:34:09.459Z,6.07
2022-10-24T21:36:36.761Z,5.95
2022-10-24T21:39:04.075Z,5.38
2022-10-24T21:41:31.353Z,5.95
2022-10-24T21:43:59.170Z,5.72
2022-10-24T21:46:29.178Z,5.95
2022-10-24T21:48:57.216Z,5.50
2022-10-24T21:51:26.459Z,5.95
2022-10-24T21:54:13.970Z,5.53
2022-10-24T21:56:41.203Z,6.18
2022-10-24T21:59:11.949Z,4.63
2022-10-24T22:01:39.601Z,5.72
2022-10-24T22:04:07.437Z,5.65
2022-10-24T22:06:35.610Z,5.80
2022-10-24T22:09:03.259Z,5.30
2022-10-24T22:11:31.481Z,5.60
2022-10-24T22:13:59.079Z,5.40
2022-10-24T22:16:27.726Z,5.72
2022-10-24T22:18:55.609Z,5.72
2022-10-24T22:21:23.249Z,6.07
2022-10-24T22:23:50.563Z,5.70
2022-10-24T22:26:17.917Z,5.88
2022-10-24T22:28:45.163Z,5.90
2022-10-24T22:31:13.942Z,6.30
2022-10-24T22:33:41.937Z,6.38
2022-10-24T22:36:21.699Z,5.88
2022-10-24T22:38:52.124Z,5.70
2022-10-24T22:41:19.918Z,6.20
2022-10-24T22:43:47.400Z,5.88
2022-10-24T22:46:26.971Z,6.07
2022-10-24T22:48:58.801Z,5.90
2022-10-24T22:51:26.236Z,5.75
2022-10-24T22:53:53.702Z,6.05
2022-10-24T22:56:30.774Z,6.00
2022-10-24T22:58:58.201Z,6.07
2022-10-24T23:01:31.910Z,6.80
2022-10-24T23:04:14.900Z,6.07
2022-10-24T23:07:00.052Z,6.07
2022-10-24T23:09:28.706Z,6.32
2022-10-24T23:11:56.193Z,5.88
2022-10-24T23:14:23.572Z,5.80
2022-10-24T23:16:51.231Z,5.68
2022-10-24T23:19:21.419Z,5.40
2022-10-24T23:22:11.701Z,5.38
2022-10-24T23:24:39.099Z,6.63
2022-10-24T23:27:28.359Z,6.05
2022-10-24T23:29:55.786Z,6.30
2022-10-24T23:32:24.645Z,5.43
2022-10-24T23:34:52.686Z,5.72
2022-10-24T23:37:34.528Z,5.88
2022-10-24T23:40:03.115Z,5.97
2022-10-24T23:42:30.547Z,5.88
2022-10-24T23:44:57.962Z,10.13
2022-10-24T23:47:35.739Z,6.40
2022-10-24T23:50:23.363Z,5.78
2022-10-24T23:53:08.738Z,6.10
2022-10-24T23:55:36.151Z,5.65
2022-10-24T23:58:03.451Z,5.95
